createdAt,value
2023-05-07T00:01:06.746Z,101776.94
2023-05-07T00:03:34.243Z,101764.81
2023-05-07T00:06:01.238Z,101766.81
2023-05-07T00:08:32.667Z,101769.28
2023-05-07T00:10:59.564Z,101776.44
2023-05-07T00:13:26.560Z,101772.75
2023-05-07T00:15:53.510Z,101762.84
2023-05-07T00:18:23.419Z,101772.94
2023-05-07T00:20:50.319Z,101769.22
2023-05-07T00:23:17.236Z,101765.56
2023-05-07T00:25:44.151Z,101765.31
2023-05-07T00:28:10.971Z,101764.06
2023-05-07T00:30:40.494Z,101764.75
2023-05-07T00:33:07.450Z,101769.31
2023-05-07T00:35:36.802Z,101765.44
2023-05-07T00:38:05.753Z,101755.59
2023-05-07T00:40:32.724Z,101764.84
2023-05-07T00:43:00.837Z,101762.16
2023-05-07T00:45:30.960Z,101766.19
2023-05-07T00:48:02.124Z,101761.63
2023-05-07T00:50:32.717Z,101755.03
2023-05-07T00:53:00.947Z,101760.47
2023-05-07T00:55:32.830Z,101758.63
2023-05-07T00:57:59.805Z,101752.47
2023-05-07T01:00:26.753Z,101759.31
2023-05-07T01:02:53.980Z,101745.50
2023-05-07T01:05:24.718Z,101745.94
2023-05-07T01:07:56.765Z,101739.09
2023-05-07T01:10:26.177Z,101739.34
2023-05-07T01:12:55.934Z,101737.75
2023-05-07T01:15:22.870Z,101740.28
2023-05-07T01:17:49.871Z,101738.44
2023-05-07T01:20:16.857Z,101751.41
2023-05-07T01:22:44.767Z,101741.88
2023-05-07T01:25:14.673Z,101744.22
2023-05-07T01:27:41.636Z,101743.38
2023-05-07T01:30:09.480Z,101743.63
2023-05-07T01:32:57.673Z,101734.22
2023-05-07T01:35:30.701Z,101735.38
2023-05-07T01:37:57.974Z,101745.50
2023-05-07T01:40:31.214Z,101745.03
2023-05-07T01:42:58.400Z,101745.63
2023-05-07T01:45:28.801Z,101745.75
2023-05-07T01:47:57.054Z,101737.03
2023-05-07T01:50:24.499Z,101740.78
2023-05-07T01:52:56.664Z,101730.63
2023-05-07T01:55:25.943Z,101752.69
2023-05-07T01:57:52.771Z,101741.31
2023-05-07T02:00:20.403Z,101742.03
2023-05-07T02:02:47.406Z,101758.06
2023-05-07T02:05:16.752Z,101753.31
2023-05-07T02:07:43.598Z,101767.88
2023-05-07T02:10:11.152Z,101772.94
2023-05-07T02:12:40.730Z,101765.94
2023-05-07T02:15:08.339Z,101768.31
2023-05-07T02:17:36.589Z,101765.47
2023-05-07T02:20:06.023Z,101767.78
2023-05-07T02:22:35.339Z,101781.47
2023-05-07T02:25:02.155Z,101768.19
2023-05-07T02:27:29.018Z,101768.38
2023-05-07T02:29:56.035Z,101768.00
2023-05-07T02:32:27.720Z,101776.25
2023-05-07T02:34:54.746Z,101790.47
2023-05-07T02:37:23.696Z,101778.66
2023-05-07T02:39:57.626Z,101781.56
2023-05-07T02:42:24.460Z,101787.28
2023-05-07T02:44:53.463Z,101787.00
2023-05-07T02:47:20.379Z,101776.75
2023-05-07T02:49:47.258Z,101775.69
2023-05-07T02:52:18.795Z,101779.72
2023-05-07T02:54:45.639Z,101785.84
2023-05-07T02:57:12.509Z,101772.16
2023-05-07T02:59:43.908Z,101777.31
2023-05-07T03:02:11.156Z,101771.19
2023-05-07T03:04:39.200Z,101775.31
2023-05-07T03:07:08.254Z,101779.69
2023-05-07T03:09:38.207Z,101777.19
2023-05-07T03:12:05.349Z,101777.53
2023-05-07T03:14:32.212Z,101780.97
2023-05-07T03:17:02.422Z,101786.13
2023-05-07T03:19:32.336Z,101779.13
2023-05-07T03:21:59.321Z,101780.16
2023-05-07T03:24:28.806Z,101773.28
2023-05-07T03:26:55.726Z,101787.44
2023-05-07T03:29:22.577Z,101786.44
2023-05-07T03:31:49.569Z,101784.03
2023-05-07T03:34:17.945Z,101780.69
2023-05-07T03:36:46.987Z,101787.09
2023-05-07T03:39:16.331Z,101792.91
2023-05-07T03:41:45.856Z,101797.16
2023-05-07T03:44:12.780Z,101784.97
2023-05-07T03:46:39.670Z,101784.81
2023-05-07T03:49:06.568Z,101787.72
2023-05-07T03:51:36.979Z,101786.16
2023-05-07T03:54:06.132Z,101780.28
2023-05-07T03:56:35.263Z,101787.13
2023-05-07T03:59:02.703Z,101789.31
2023-05-07T04:01:29.945Z,101786.31
2023-05-07T04:03:58.039Z,101790.53
2023-05-07T04:06:28.571Z,101784.28
2023-05-07T04:08:55.377Z,101781.09
2023-05-07T04:11:22.322Z,101793.38
2023-05-07T04:13:51.674Z,101789.31
2023-05-07T04:16:18.564Z,101787.47
2023-05-07T04:18:45.425Z,101799.69
2023-05-07T04:21:21.971Z,101799.66
2023-05-07T04:23:54.919Z,101800.44
2023-05-07T04:26:22.294Z,101794.81
2023-05-07T04:28:51.677Z,101800.47
2023-05-07T04:31:18.656Z,101803.22
2023-05-07T04:33:45.827Z,101793.56
2023-05-07T04:36:12.724Z,101802.47
2023-05-07T04:38:39.735Z,101801.25
2023-05-07T04:41:07.943Z,101796.56
2023-05-07T04:43:37.020Z,101795.44
2023-05-07T04:46:03.891Z,101804.66
2023-05-07T04:48:32.905Z,101802.91
2023-05-07T04:50:59.745Z,101811.97
2023-05-07T04:53:28.843Z,101812.69
2023-05-07T04:55:59.082Z,101809.38
2023-05-07T04:58:28.594Z,101815.19
2023-05-07T05:00:55.737Z,101816.66
2023-05-07T05:03:22.810Z,101818.13
2023-05-07T05:05:53.900Z,101821.09
2023-05-07T05:08:21.094Z,101830.47
2023-05-07T05:10:49.758Z,101831.84
2023-05-07T05:13:16.740Z,101829.91
2023-05-07T05:15:46.688Z,101819.97
2023-05-07T05:18:16.218Z,101822.34
2023-05-07T05:20:45.548Z,101828.03
2023-05-07T05:23:14.548Z,101831.47
2023-05-07T05:25:41.506Z,101831.53
2023-05-07T05:28:15.456Z,101823.81
2023-05-07T05:30:46.978Z,101832.66
2023-05-07T05:33:15.879Z,101831.31
2023-05-07T05:35:43.411Z,101834.84
2023-05-07T05:38:12.406Z,101838.44
2023-05-07T05:40:39.288Z,101829.84
2023-05-07T05:43:07.071Z,101833.53
2023-05-07T05:45:36.527Z,101834.34
2023-05-07T05:48:03.492Z,101830.94
2023-05-07T05:50:30.414Z,101835.81
2023-05-07T05:52:57.752Z,101838.66
2023-05-07T05:55:26.890Z,101840.91
2023-05-07T05:57:53.867Z,101845.81
2023-05-07T06:00:23.441Z,101852.06
2023-05-07T06:02:50.613Z,101854.38
2023-05-07T06:05:17.798Z,101844.41
2023-05-07T06:07:47.255Z,101844.19
2023-05-07T06:10:14.330Z,101856.63
2023-05-07T06:12:41.458Z,101849.59
2023-05-07T06:15:11.444Z,101855.75
2023-05-07T06:17:40.930Z,101852.38
2023-05-07T06:20:08.852Z,101867.72
2023-05-07T06:22:40.626Z,101852.25
2023-05-07T06:25:08.293Z,101852.31
2023-05-07T06:27:37.398Z,101854.34
2023-05-07T06:30:07.245Z,101863.63
2023-05-07T06:32:34.224Z,101862.56
2023-05-07T06:35:03.812Z,101860.44
2023-05-07T06:37:35.296Z,101867.28
2023-05-07T06:40:05.590Z,101864.72
2023-05-07T06:42:37.292Z,101861.78
2023-05-07T06:45:05.094Z,101868.63
2023-05-07T06:47:39.611Z,101858.41
2023-05-07T06:50:07.606Z,101876.72
2023-05-07T06:52:34.512Z,101865.28
2023-05-07T06:55:03.715Z,101865.44
2023-05-07T06:57:35.173Z,101869.38
2023-05-07T07:00:08.018Z,101866.97
2023-05-07T07:02:34.913Z,101869.28
2023-05-07T07:05:01.865Z,101878.28
2023-05-07T07:07:31.486Z,101872.56
2023-05-07T07:09:58.330Z,101870.72
2023-05-07T07:12:27.576Z,101869.16
2023-05-07T07:14:55.112Z,101879.25
2023-05-07T07:17:22.256Z,101868.94
2023-05-07T07:19:51.403Z,101867.13
2023-05-07T07:22:18.245Z,101863.44
2023-05-07T07:24:45.090Z,101869.84
2023-05-07T07:27:14.980Z,101874.44
2023-05-07T07:29:41.815Z,101868.72
2023-05-07T07:32:12.631Z,101872.72
2023-05-07T07:34:39.479Z,101872.25
2023-05-07T07:37:08.551Z,101869.69
2023-05-07T07:39:36.158Z,101882.56
2023-05-07T07:42:03.035Z,101875.16
2023-05-07T07:44:34.984Z,101877.56
2023-05-07T07:47:04.355Z,101872.94
2023-05-07T07:49:31.206Z,101871.00
2023-05-07T07:52:00.985Z,101874.69
2023-05-07T07:54:27.880Z,101866.88
2023-05-07T07:56:54.910Z,101873.22
2023-05-07T07:59:21.773Z,101888.38
2023-05-07T08:01:52.324Z,101884.53
2023-05-07T08:04:24.271Z,101888.69
2023-05-07T08:06:51.226Z,101886.41
2023-05-07T08:09:18.225Z,101894.25
2023-05-07T08:11:45.086Z,101899.84
2023-05-07T08:14:12.753Z,101893.00
2023-05-07T08:16:41.724Z,101897.28
2023-05-07T08:19:08.709Z,101892.94
2023-05-07T08:21:40.756Z,101893.81
2023-05-07T08:24:10.192Z,101897.84
2023-05-07T08:26:37.386Z,101897.56
2023-05-07T08:29:04.246Z,101893.13
2023-05-07T08:31:31.132Z,101895.56
2023-05-07T08:33:59.103Z,101895.84
2023-05-07T08:36:29.521Z,101905.09
2023-05-07T08:38:58.913Z,101902.66
2023-05-07T08:41:25.991Z,101909.59
2023-05-07T08:43:53.144Z,101904.38
2023-05-07T08:46:23.727Z,101909.91
2023-05-07T08:48:52.405Z,101906.81
2023-05-07T08:51:22.046Z,101925.50
2023-05-07T08:53:56.040Z,101912.34
2023-05-07T08:56:22.975Z,101923.94
2023-05-07T08:58:52.613Z,101916.94
2023-05-07T09:01:21.769Z,101928.56
2023-05-07T09:03:49.003Z,101920.31
2023-05-07T09:06:16.648Z,101912.63
2023-05-07T09:08:54.627Z,101934.66
2023-05-07T09:11:23.825Z,101928.97
2023-05-07T09:13:56.810Z,101927.97
2023-05-07T09:16:24.762Z,101945.53
2023-05-07T09:18:55.970Z,101935.22
2023-05-07T09:21:25.407Z,101941.84
2023-05-07T09:23:53.979Z,101932.56
2023-05-07T09:26:26.115Z,101940.03
2023-05-07T09:28:55.521Z,101940.78
2023-05-07T09:31:24.560Z,101947.88
2023-05-07T09:33:57.165Z,101938.59
2023-05-07T09:36:24.235Z,101936.00
2023-05-07T09:38:57.549Z,101938.31
2023-05-07T09:41:24.767Z,101948.28
2023-05-07T09:43:56.104Z,101953.50
2023-05-07T09:46:30.963Z,101938.78
2023-05-07T09:48:59.828Z,101933.13
2023-05-07T09:51:35.400Z,101941.34
2023-05-07T09:54:04.456Z,101940.25
2023-05-07T09:56:34.517Z,101947.97
2023-05-07T09:59:02.199Z,101940.47
2023-05-07T10:01:29.305Z,101952.44
2023-05-07T10:03:58.584Z,101952.50
2023-05-07T10:06:28.967Z,101952.88
2023-05-07T10:08:57.487Z,101944.28
2023-05-07T10:11:27.391Z,101945.25
2023-05-07T10:13:55.153Z,101946.84
2023-05-07T10:16:22.783Z,101946.06
2023-05-07T10:18:51.061Z,101948.69
2023-05-07T10:21:24.238Z,101946.91
2023-05-07T10:24:07.808Z,101943.22
2023-05-07T10:26:39.414Z,101950.16
2023-05-07T10:29:19.043Z,101945.16
2023-05-07T10:31:57.475Z,101942.94
2023-05-07T10:34:35.503Z,101954.81
2023-05-07T10:37:03.560Z,101948.09
2023-05-07T10:39:33.550Z,101952.88
2023-05-07T10:42:11.761Z,101943.50
2023-05-07T10:44:39.073Z,101955.41
2023-05-07T10:47:11.774Z,101952.19
2023-05-07T10:50:07.672Z,101958.00
2023-05-07T10:52:36.913Z,101952.09
2023-05-07T10:55:19.888Z,101952.00
2023-05-07T10:57:49.387Z,101953.06
2023-05-07T11:00:38.126Z,101955.09
2023-05-07T11:03:07.996Z,101952.38
2023-05-07T11:05:38.835Z,101958.44
2023-05-07T11:08:09.650Z,101946.00
2023-05-07T11:10:57.019Z,101954.94
2023-05-07T11:13:47.210Z,101948.47
2023-05-07T11:16:22.056Z,101951.44
2023-05-07T11:18:51.539Z,101944.81
2023-05-07T11:21:47.868Z,101950.47
2023-05-07T11:24:18.104Z,101945.72
2023-05-07T11:26:50.126Z,101948.31
2023-05-07T11:29:23.308Z,101951.63
2023-05-07T11:31:55.877Z,101965.69
2023-05-07T11:34:27.397Z,101947.38
2023-05-07T11:36:54.639Z,101938.66
2023-05-07T11:39:36.995Z,101949.16
2023-05-07T11:42:04.195Z,101946.03
2023-05-07T11:44:49.193Z,101941.50
2023-05-07T11:47:20.623Z,101946.16
2023-05-07T11:49:56.253Z,101938.16
2023-05-07T11:52:25.480Z,101943.81
2023-05-07T11:54:55.726Z,101946.22
2023-05-07T11:57:24.245Z,101945.50
2023-05-07T11:59:58.787Z,101939.00
2023-05-07T12:02:27.194Z,101957.44
2023-05-07T12:04:55.982Z,101948.06
2023-05-07T12:07:25.074Z,101938.94
2023-05-07T12:09:54.739Z,101948.50
2023-05-07T12:12:24.025Z,101938.50
2023-05-07T12:14:51.377Z,101934.19
2023-05-07T12:17:18.583Z,101947.50
2023-05-07T12:19:46.549Z,101945.75
2023-05-07T12:22:14.006Z,101948.50
2023-05-07T12:24:58.465Z,101946.13
2023-05-07T12:27:27.039Z,101948.19
2023-05-07T12:30:00.426Z,101938.34
2023-05-07T12:32:38.231Z,101939.69
2023-05-07T12:35:10.296Z,101933.13
2023-05-07T12:37:39.573Z,101943.47
2023-05-07T12:40:17.563Z,101929.44
2023-05-07T12:42:46.405Z,101940.56
2023-05-07T12:45:20.382Z,101940.75
2023-05-07T12:47:48.348Z,101939.81
2023-05-07T12:50:19.495Z,101927.16
2023-05-07T12:52:50.155Z,101941.09
2023-05-07T12:55:20.423Z,101933.13
2023-05-07T12:57:51.404Z,101936.56
2023-05-07T13:00:22.280Z,101925.94
2023-05-07T13:02:49.250Z,101934.09
2023-05-07T13:05:16.147Z,101934.97
2023-05-07T13:07:55.210Z,101921.34
2023-05-07T13:10:25.981Z,101917.19
2023-05-07T13:12:53.717Z,101921.19
2023-05-07T13:15:21.896Z,101915.56
2023-05-07T13:17:49.007Z,101927.28
2023-05-07T13:20:16.485Z,101907.81
2023-05-07T13:22:46.356Z,101904.03
2023-05-07T13:25:16.333Z,101916.31
2023-05-07T13:27:51.534Z,101917.56
2023-05-07T13:30:24.048Z,101904.56
2023-05-07T13:32:54.832Z,101903.28
2023-05-07T13:35:22.272Z,101891.91
2023-05-07T13:37:53.291Z,101897.25
2023-05-07T13:40:22.847Z,101894.22
2023-05-07T13:42:51.442Z,101894.09
2023-05-07T13:45:22.056Z,101905.66
2023-05-07T13:47:51.687Z,101915.78
2023-05-07T13:50:21.554Z,101888.00
2023-05-07T13:52:52.069Z,101901.59
2023-05-07T13:55:22.552Z,101893.50
2023-05-07T13:57:57.052Z,101900.66
2023-05-07T14:00:28.729Z,101884.53
2023-05-07T14:02:57.123Z,101903.56
2023-05-07T14:05:24.851Z,101895.69
2023-05-07T14:07:53.090Z,101894.81
2023-05-07T14:10:20.456Z,101893.00
2023-05-07T14:12:48.128Z,101899.50
2023-05-07T14:15:15.843Z,101884.53
2023-05-07T14:17:45.471Z,101894.41
2023-05-07T14:20:17.251Z,101899.00
2023-05-07T14:22:47.341Z,101885.41
2023-05-07T14:25:19.300Z,101886.31
2023-05-07T14:27:48.492Z,101873.38
2023-05-07T14:30:15.535Z,101894.63
2023-05-07T14:32:45.010Z,101892.84
2023-05-07T14:35:12.531Z,101878.00
2023-05-07T14:37:39.852Z,101881.88
2023-05-07T14:40:07.848Z,101881.44
2023-05-07T14:42:34.913Z,101865.81
2023-05-07T14:45:03.313Z,101863.44
2023-05-07T14:47:30.303Z,101862.97
2023-05-07T14:49:58.345Z,101877.44
2023-05-07T14:52:25.696Z,101869.13
2023-05-07T14:54:55.644Z,101876.91
2023-05-07T14:57:23.022Z,101864.09
2023-05-07T14:59:50.169Z,101868.06
2023-05-07T15:02:20.965Z,101862.00
2023-05-07T15:04:48.616Z,101874.09
2023-05-07T15:07:18.591Z,101865.84
2023-05-07T15:09:46.128Z,101871.69
2023-05-07T15:12:13.107Z,101873.09
2023-05-07T15:14:40.804Z,101878.88
2023-05-07T15:17:10.432Z,101868.00
2023-05-07T15:19:37.768Z,101863.72
2023-05-07T15:22:04.821Z,101870.63
2023-05-07T15:24:32.222Z,101874.06
2023-05-07T15:26:59.265Z,101867.16
2023-05-07T15:29:26.250Z,101874.03
2023-05-07T15:31:53.356Z,101871.97
2023-05-07T15:34:20.407Z,101868.84
2023-05-07T15:37:07.364Z,101866.47
2023-05-07T15:40:04.110Z,101860.22
2023-05-07T15:42:40.339Z,101868.16
2023-05-07T15:45:14.654Z,101881.91
2023-05-07T15:47:47.298Z,101880.75
2023-05-07T15:50:20.328Z,101871.81
2023-05-07T15:52:51.213Z,101877.00
2023-05-07T15:55:18.370Z,101872.31
2023-05-07T15:57:47.788Z,101875.47
2023-05-07T16:00:18.959Z,101880.41
2023-05-07T16:02:45.991Z,101872.66
2023-05-07T16:05:13.962Z,101870.38
2023-05-07T16:07:44.383Z,101868.38
2023-05-07T16:10:14.906Z,101863.56
2023-05-07T16:12:44.547Z,101868.81
2023-05-07T16:15:12.165Z,101869.78
2023-05-07T16:17:39.166Z,101866.31
2023-05-07T16:20:09.510Z,101871.84
2023-05-07T16:22:38.887Z,101872.47
2023-05-07T16:25:06.756Z,101865.25
2023-05-07T16:27:33.716Z,101862.84
2023-05-07T16:30:05.188Z,101859.25
2023-05-07T16:32:32.100Z,101854.78
2023-05-07T16:34:59.092Z,101856.47
2023-05-07T16:37:25.940Z,101856.66
2023-05-07T16:39:53.228Z,101856.44
2023-05-07T16:42:20.079Z,101861.72
2023-05-07T16:44:47.321Z,101864.81
2023-05-07T16:47:17.397Z,101859.16
2023-05-07T16:49:44.433Z,101860.44
2023-05-07T16:52:11.316Z,101864.75
2023-05-07T16:54:38.392Z,101880.88
2023-05-07T16:57:05.262Z,101872.72
2023-05-07T16:59:35.272Z,101871.28
2023-05-07T17:02:02.207Z,101876.88
2023-05-07T17:04:32.574Z,101869.31
2023-05-07T17:07:00.158Z,101865.91
2023-05-07T17:09:27.618Z,101876.50
2023-05-07T17:11:54.662Z,101864.38
2023-05-07T17:14:21.589Z,101874.97
2023-05-07T17:16:48.512Z,101871.69
2023-05-07T17:19:17.904Z,101875.22
2023-05-07T17:21:44.934Z,101872.06
2023-05-07T17:24:14.859Z,101876.03
2023-05-07T17:26:43.038Z,101879.91
2023-05-07T17:29:10.402Z,101873.19
2023-05-07T17:31:37.301Z,101883.94
2023-05-07T17:34:04.298Z,101882.00
2023-05-07T17:36:31.501Z,101887.47
2023-05-07T17:38:58.857Z,101883.38
2023-05-07T17:41:28.297Z,101885.41
2023-05-07T17:43:55.248Z,101889.28
2023-05-07T17:46:22.244Z,101891.06
2023-05-07T17:48:52.074Z,101894.22
2023-05-07T17:51:19.051Z,101894.31
2023-05-07T17:53:50.312Z,101896.56
2023-05-07T17:56:17.261Z,101896.88
2023-05-07T17:58:58.060Z,101901.00
2023-05-07T18:01:25.557Z,101899.28
2023-05-07T18:03:52.751Z,101900.00
2023-05-07T18:06:23.205Z,101902.41
2023-05-07T18:08:50.170Z,101904.44
2023-05-07T18:11:17.039Z,101904.28
2023-05-07T18:13:43.939Z,101897.31
2023-05-07T18:16:10.953Z,101909.63
2023-05-07T18:18:40.586Z,101902.09
2023-05-07T18:21:15.199Z,101901.75
2023-05-07T18:23:42.097Z,101916.84
2023-05-07T18:26:11.552Z,101916.09
2023-05-07T18:28:38.516Z,101914.00
2023-05-07T18:31:05.925Z,101913.63
2023-05-07T18:33:33.030Z,101920.16
2023-05-07T18:36:02.347Z,101917.09
2023-05-07T18:38:31.414Z,101914.28
2023-05-07T18:41:08.918Z,101922.19
2023-05-07T18:43:36.054Z,101923.06
2023-05-07T18:46:03.027Z,101931.75
2023-05-07T18:48:32.402Z,101941.19
2023-05-07T18:50:59.324Z,101940.38
2023-05-07T18:53:26.197Z,101940.19
2023-05-07T18:56:00.825Z,101944.47
2023-05-07T18:58:30.428Z,101946.00
2023-05-07T19:01:00.338Z,101940.84
2023-05-07T19:03:27.914Z,101945.13
2023-05-07T19:05:55.841Z,101941.41
2023-05-07T19:08:22.714Z,101949.09
2023-05-07T19:10:49.538Z,101949.78
2023-05-07T19:13:18.656Z,101952.34
2023-05-07T19:15:48.233Z,101957.81
2023-05-07T19:18:15.236Z,101958.81
2023-05-07T19:20:42.094Z,101961.38
2023-05-07T19:23:10.383Z,101958.00
2023-05-07T19:25:37.486Z,101965.00
2023-05-07T19:28:06.878Z,101966.72
2023-05-07T19:30:33.815Z,101967.56
2023-05-07T19:33:03.142Z,101971.84
2023-05-07T19:35:33.102Z,101969.06
2023-05-07T19:38:03.296Z,101967.19
2023-05-07T19:40:30.239Z,101981.38
2023-05-07T19:42:57.271Z,101977.94
2023-05-07T19:45:24.152Z,101982.03
2023-05-07T19:47:51.136Z,101984.59
2023-05-07T19:50:20.802Z,101985.44
2023-05-07T19:52:50.114Z,101991.94
2023-05-07T19:55:17.363Z,101995.50
2023-05-07T19:57:49.816Z,102001.31
2023-05-07T20:00:17.208Z,102001.31
2023-05-07T20:02:44.170Z,102002.84
2023-05-07T20:05:12.577Z,102009.19
2023-05-07T20:07:43.727Z,102007.97
2023-05-07T20:10:11.456Z,102002.50
2023-05-07T20:12:38.641Z,102005.56
2023-05-07T20:15:06.316Z,102013.00
2023-05-07T20:17:35.402Z,102013.66
2023-05-07T20:20:02.353Z,102015.72
2023-05-07T20:22:32.758Z,102019.84
2023-05-07T20:25:02.636Z,102013.00
2023-05-07T20:27:34.448Z,102012.94
2023-05-07T20:30:01.745Z,102007.75
2023-05-07T20:32:31.021Z,102007.81
2023-05-07T20:34:57.885Z,102018.97
2023-05-07T20:37:27.298Z,102015.84
2023-05-07T20:39:54.134Z,102016.00
2023-05-07T20:42:26.669Z,102021.63
2023-05-07T20:44:53.688Z,102015.94
2023-05-07T20:47:20.602Z,102016.53
2023-05-07T20:49:52.538Z,102024.31
2023-05-07T20:52:21.788Z,102025.66
2023-05-07T20:54:51.182Z,102032.06
2023-05-07T20:57:19.692Z,102028.44
2023-05-07T20:59:46.713Z,102031.31
2023-05-07T21:02:18.701Z,102034.47
2023-05-07T21:04:45.869Z,102040.16
2023-05-07T21:07:13.000Z,102043.28
2023-05-07T21:09:42.491Z,102046.09
2023-05-07T21:12:09.360Z,102050.47
2023-05-07T21:14:38.628Z,102053.75
2023-05-07T21:17:07.135Z,102053.50
2023-05-07T21:19:34.263Z,102059.34
2023-05-07T21:22:01.273Z,102054.91
2023-05-07T21:24:28.203Z,102063.22
2023-05-07T21:27:00.816Z,102065.97
2023-05-07T21:29:27.796Z,102069.03
2023-05-07T21:31:57.257Z,102071.59
2023-05-07T21:34:24.330Z,102075.28
2023-05-07T21:36:53.817Z,102066.41
2023-05-07T21:39:25.306Z,102070.28
2023-05-07T21:41:54.399Z,102070.53
2023-05-07T21:44:21.264Z,102074.66
2023-05-07T21:46:48.334Z,102072.25
2023-05-07T21:49:19.273Z,102083.06
2023-05-07T21:51:46.310Z,102077.47
2023-05-07T21:54:16.844Z,102084.56
2023-05-07T21:56:43.780Z,102081.34
2023-05-07T21:59:10.660Z,102087.78
2023-05-07T22:01:37.548Z,102090.59
2023-05-07T22:04:05.006Z,102092.75
2023-05-07T22:06:36.652Z,102093.28
2023-05-07T22:09:05.630Z,102084.72
2023-05-07T22:11:37.163Z,102097.34
2023-05-07T22:14:04.103Z,102094.63
2023-05-07T22:16:31.026Z,102096.47
2023-05-07T22:19:00.425Z,102093.88
2023-05-07T22:21:27.420Z,102106.78
2023-05-07T22:23:54.274Z,102108.78
2023-05-07T22:26:26.491Z,102116.22
2023-05-07T22:28:55.413Z,102103.78
2023-05-07T22:31:24.396Z,102109.38
2023-05-07T22:33:53.413Z,102105.06
2023-05-07T22:36:20.413Z,102108.50
2023-05-07T22:38:47.306Z,102115.09
2023-05-07T22:41:17.166Z,102112.50
2023-05-07T22:43:44.156Z,102116.81
2023-05-07T22:46:13.577Z,102116.53
2023-05-07T22:48:40.461Z,102121.69
2023-05-07T22:51:12.614Z,102120.53
2023-05-07T22:53:39.564Z,102115.22
2023-05-07T22:56:07.689Z,102126.81
2023-05-07T22:58:37.056Z,102117.53
2023-05-07T23:01:04.279Z,102121.09
2023-05-07T23:03:32.210Z,102124.38
2023-05-07T23:05:59.226Z,102120.38
2023-05-07T23:08:26.176Z,102131.84
2023-05-07T23:10:53.072Z,102124.53
2023-05-07T23:13:22.219Z,102128.66
2023-05-07T23:15:50.666Z,102126.09
2023-05-07T23:18:17.536Z,102124.81
2023-05-07T23:20:44.585Z,102125.91
2023-05-07T23:23:15.977Z,102113.06
2023-05-07T23:25:46.972Z,102125.19
2023-05-07T23:28:18.470Z,102119.91
2023-05-07T23:30:47.562Z,102119.53
2023-05-07T23:33:14.412Z,102124.53
2023-05-07T23:35:41.353Z,102128.44
2023-05-07T23:38:12.796Z,102127.84
2023-05-07T23:40:39.673Z,102128.41
2023-05-07T23:43:06.527Z,102131.41
2023-05-07T23:45:33.403Z,102117.13
2023-05-07T23:48:00.376Z,102123.78
2023-05-07T23:50:27.319Z,102131.22
2023-05-07T23:52:54.152Z,102121.69
2023-05-07T23:55:24.181Z,102122.25
2023-05-07T23:57:51.043Z,102116.03
